Time;durP1;ratioP1;P1;durP2;ratioP2;P2;SDS_P1;SDS_P2;PMS_P1;PMS_P2;Temp;Humidity;BMP_temperature;BMP_pressure;BME280_temperature;BME280_humidity;BME280_pressure;Samples;Min_cycle;Max_cycle;Signal;HPM_P1;HPM_P2
2023/01/31 00:01:33;;;;;;;4.70;0.82;;;;;;;3.78;100.00;101651.94;6273982;28;20041;-71
2023/01/31 00:04:35;;;;;;;8.73;1.60;;;;;;;3.89;100.00;101649.22;6275029;28;20055;-71
2023/01/31 00:07:37;;;;;;;5.65;1.33;;;;;;;3.91;100.00;101656.13;6275673;28;20053;-71
2023/01/31 00:10:39;;;;;;;7.50;0.93;;;;;;;3.91;100.00;101658.72;6275080;28;20044;-71
2023/01/31 00:13:40;;;;;;;8.88;0.90;;;;;;;3.85;100.00;101660.53;6275502;28;20064;-71
2023/01/31 00:16:41;;;;;;;6.95;1.15;;;;;;;3.85;100.00;101657.94;6274993;28;20382;-71
2023/01/31 00:19:43;;;;;;;2.95;0.77;;;;;;;3.83;100.00;101662.28;6275439;28;20041;-72
2023/01/31 00:22:45;;;;;;;15.20;0.88;;;;;;;3.78;100.00;101655.41;6275107;28;20052;-71
2023/01/31 00:25:47;;;;;;;10.93;1.17;;;;;;;3.76;100.00;101645.88;6275283;28;20378;-72
2023/01/31 00:28:50;;;;;;;2.03;0.65;;;;;;;3.70;100.00;101662.41;6275056;28;20045;-72
2023/01/31 00:31:51;;;;;;;10.10;1.30;;;;;;;3.64;100.00;101657.28;6273746;28;20049;-71
2023/01/31 00:34:53;;;;;;;10.02;0.93;;;;;;;3.61;100.00;101654.72;6274964;28;20055;-71
2023/01/31 00:37:56;;;;;;;13.15;1.65;;;;;;;3.58;100.00;101653.88;6275114;28;20052;-72
2023/01/31 00:40:57;;;;;;;4.57;1.15;;;;;;;3.45;100.00;101660.91;6274802;28;20052;-71
2023/01/31 00:44:00;;;;;;;8.65;1.15;;;;;;;3.43;100.00;101668.75;6275015;28;20056;-71
2023/01/31 00:47:01;;;;;;;6.15;1.20;;;;;;;3.45;100.00;101671.31;6274841;28;20072;-71
2023/01/31 00:50:03;;;;;;;6.65;1.42;;;;;;;3.38;100.00;101667.06;6274858;28;20057;-71
2023/01/31 00:53:06;;;;;;;7.80;1.83;;;;;;;3.42;100.00;101668.75;6274882;28;20053;-71
2023/01/31 00:56:10;;;;;;;1.42;0.68;;;;;;;3.38;100.00;101675.72;6274998;28;20060;-71
2023/01/31 00:59:11;;;;;;;7.18;1.33;;;;;;;3.39;100.00;101679.16;6274820;28;20060;-71
2023/01/31 01:02:12;;;;;;;15.98;2.83;;;;;;;3.41;100.00;101678.28;6269046;28;20045;-71
2023/01/31 01:05:14;;;;;;;7.57;1.13;;;;;;;3.41;100.00;101678.28;6250184;28;20050;-71
2023/01/31 01:08:16;;;;;;;12.68;0.98;;;;;;;3.44;100.00;101678.25;6249789;28;20056;-71
2023/01/31 01:11:23;;;;;;;7.30;0.95;;;;;;;3.43;100.00;101686.91;6254522;28;20375;-71
2023/01/31 01:14:25;;;;;;;13.27;1.50;;;;;;;3.41;100.00;101686.09;6254413;28;20050;-71
2023/01/31 01:17:26;;;;;;;7.50;0.95;;;;;;;3.37;100.00;101686.13;6254388;28;20080;-71
2023/01/31 01:20:28;;;;;;;3.63;1.98;;;;;;;3.38;100.00;101693.91;6254355;28;20045;-71
2023/01/31 01:23:31;;;;;;;10.52;1.75;;;;;;;3.39;100.00;101682.63;6254302;28;20056;-71
2023/01/31 01:26:33;;;;;;;7.45;1.48;;;;;;;3.38;100.00;101688.69;6254313;28;20057;-71
2023/01/31 01:29:35;;;;;;;15.77;2.80;;;;;;;3.42;100.00;101695.59;6254195;28;20045;-71
2023/01/31 01:32:36;;;;;;;15.27;2.67;;;;;;;3.50;100.00;101709.41;6255196;28;20041;-71
2023/01/31 01:35:38;;;;;;;1.33;0.82;;;;;;;3.58;100.00;101709.31;6254148;28;20432;-71
2023/01/31 01:38:40;;;;;;;13.77;1.35;;;;;;;3.53;100.00;101714.53;6253859;28;20053;-71
2023/01/31 01:41:42;;;;;;;9.55;1.05;;;;;;;3.54;100.00;101710.19;6254076;28;20076;-71
2023/01/31 01:44:47;;;;;;;8.63;1.25;;;;;;;3.52;100.00;101709.38;6253537;28;20053;-71
2023/01/31 01:47:52;;;;;;;10.88;1.23;;;;;;;3.50;100.00;101713.72;6254148;28;20052;-71
2023/01/31 01:50:54;;;;;;;16.02;2.25;;;;;;;3.49;100.00;101709.38;6253624;28;20084;-71
2023/01/31 01:54:02;;;;;;;7.82;0.90;;;;;;;3.45;100.00;101716.38;6253528;28;20431;-71
2023/01/31 01:57:06;;;;;;;6.03;1.70;;;;;;;3.49;100.00;101707.66;6253508;28;20053;-71
2023/01/31 02:00:12;;;;;;;7.13;1.75;;;;;;;3.55;100.00;101693.75;6253519;28;20046;-71
2023/01/31 02:03:15;;;;;;;6.70;1.30;;;;;;;3.54;100.00;101699.81;6268980;28;20565;-71
2023/01/31 02:06:17;;;;;;;4.40;0.95;;;;;;;3.56;100.00;101711.94;6273436;28;20048;-71
2023/01/31 02:09:32;;;;;;;4.20;0.95;;;;;;;3.59;100.00;101691.97;6277291;28;20052;-71
2023/01/31 02:12:35;;;;;;;1.55;0.70;;;;;;;3.58;100.00;101695.44;6272185;28;20041;-71
2023/01/31 02:15:37;;;;;;;4.70;1.42;;;;;;;3.55;100.00;101709.34;6275471;28;20052;-71
2023/01/31 02:18:38;;;;;;;12.57;1.30;;;;;;;3.55;100.00;101718.00;6269683;28;20041;-71
2023/01/31 02:22:08;;;;;;;9.20;1.83;;;;;;;3.54;100.00;101715.41;6270121;28;20052;-72
2023/01/31 02:25:43;;;;;;;6.85;1.25;;;;;;;3.48;100.00;101721.53;6253026;28;20048;-72
2023/01/31 02:29:11;;;;;;;8.73;1.05;;;;;;;3.41;100.00;101708.63;6254735;28;20049;-73
2023/01/31 02:32:38;;;;;;;10.70;1.45;;;;;;;3.47;100.00;101721.53;6270924;28;20324;-73
2023/01/31 02:35:52;;;;;;;7.25;1.05;;;;;;;3.45;100.00;101731.97;6250390;28;20439;-72
2023/01/31 02:39:02;;;;;;;5.57;1.05;;;;;;;3.44;100.00;101738.00;6252615;28;20049;-72
2023/01/31 02:42:13;;;;;;;9.20;1.52;;;;;;;3.43;100.00;101748.41;6252840;28;20045;-72
2023/01/31 02:45:23;;;;;;;11.73;1.30;;;;;;;3.48;100.00;101747.50;6252460;28;20053;-72
2023/01/31 02:48:36;;;;;;;14.80;1.33;;;;;;;3.46;100.00;101753.59;6252333;28;20443;-72
2023/01/31 02:52:14;;;;;;;6.40;1.83;;;;;;;3.43;100.00;101749.28;6252206;28;20055;-72
2023/01/31 02:58:33;;;;;;;5.10;1.08;;;;;;;3.37;100.00;101759.72;6251996;28;20140;-78
2023/01/31 03:01:38;;;;;;;16.67;2.08;;;;;;;3.38;100.00;101745.88;6251521;28;20343;-78
2023/01/31 03:04:41;;;;;;;6.15;1.13;;;;;;;3.42;100.00;101738.91;6271490;28;20458;-77
2023/01/31 03:07:46;;;;;;;17.00;1.45;;;;;;;3.42;100.00;101738.91;6276360;28;20066;-78
2023/01/31 03:11:01;;;;;;;9.98;1.42;;;;;;;3.37;100.00;101736.34;6276682;28;20045;-78
2023/01/31 03:14:15;;;;;;;10.05;1.63;;;;;;;3.34;100.00;101727.72;6276161;28;20060;-78
2023/01/31 03:17:33;;;;;;;5.88;1.00;;;;;;;3.36;100.00;101724.25;6276707;28;20353;-78
2023/01/31 03:20:43;;;;;;;6.63;1.07;;;;;;;3.35;100.00;101706.03;6276207;28;20049;-78
2023/01/31 03:23:50;;;;;;;8.07;1.30;;;;;;;3.35;100.00;101703.44;6276515;28;20048;-77
2023/01/31 03:26:53;;;;;;;10.57;1.08;;;;;;;3.36;100.00;101705.16;6276261;28;20055;-77
2023/01/31 03:30:01;;;;;;;21.40;3.10;;;;;;;3.36;100.00;101702.56;6275280;28;20052;-78
2023/01/31 03:33:08;;;;;;;8.25;1.48;;;;;;;3.33;100.00;101711.25;6271330;28;20050;-78
2023/01/31 03:36:20;;;;;;;3.53;1.25;;;;;;;3.29;100.00;101692.25;6251284;28;20041;-78
2023/01/31 03:39:32;;;;;;;14.75;2.80;;;;;;;3.23;100.00;101710.47;6254972;28;20041;-78
2023/01/31 03:42:42;;;;;;;10.50;1.65;;;;;;;3.21;100.00;101704.41;6254273;28;20049;-78
2023/01/31 03:45:50;;;;;;;7.60;0.88;;;;;;;3.21;100.00;101709.63;6251294;28;20355;-78
2023/01/31 03:48:55;;;;;;;3.75;0.52;;;;;;;3.17;100.00;101707.03;6250960;28;20053;-78
2023/01/31 03:52:03;;;;;;;9.13;1.50;;;;;;;3.11;100.00;101709.69;6250953;28;20056;-78
2023/01/31 03:55:10;;;;;;;6.57;1.60;;;;;;;3.10;100.00;101703.66;6251391;28;20136;-78
2023/01/31 03:58:13;;;;;;;9.50;1.00;;;;;;;3.01;100.00;101696.78;6250971;28;20072;-78
2023/01/31 04:01:16;;;;;;;14.63;2.38;;;;;;;3.01;100.00;101699.38;6250684;28;20053;-78
2023/01/31 04:04:23;;;;;;;7.95;1.35;;;;;;;3.05;100.00;101697.63;6263124;28;20059;-78
2023/01/31 04:07:26;;;;;;;11.93;1.42;;;;;;;3.07;100.00;101702.81;6275768;28;20052;-77
2023/01/31 04:10:28;;;;;;;1.85;0.80;;;;;;;3.04;100.00;101688.97;6275490;28;20048;-79
2023/01/31 04:13:29;;;;;;;2.85;0.82;;;;;;;2.97;100.00;101689.03;6275400;28;20428;-78
2023/01/31 04:16:30;;;;;;;7.07;0.95;;;;;;;2.98;100.00;101690.75;6275569;28;20052;-78
2023/01/31 04:19:32;;;;;;;10.80;1.55;;;;;;;2.95;100.00;101693.34;6275439;28;20189;-78
2023/01/31 04:22:34;;;;;;;5.15;2.30;;;;;;;3.01;100.00;101677.75;6275313;28;20053;-78
2023/01/31 04:25:35;;;;;;;7.82;1.05;;;;;;;2.91;100.00;101681.28;6275148;28;20048;-78
2023/01/31 04:28:37;;;;;;;2.67;1.08;;;;;;;2.94;100.00;101676.06;6275238;28;20459;-78
2023/01/31 04:31:39;;;;;;;10.93;1.42;;;;;;;2.97;100.00;101692.47;6275014;28;20338;-78
2023/01/31 04:34:40;;;;;;;4.45;1.30;;;;;;;2.91;100.00;101689.06;6273398;28;20347;-77
2023/01/31 04:37:43;;;;;;;2.90;0.75;;;;;;;2.85;100.00;101692.53;6275222;28;20049;-78
2023/01/31 04:40:44;;;;;;;6.25;1.10;;;;;;;2.87;100.00;101693.41;6275314;28;20071;-78
2023/01/31 04:43:45;;;;;;;19.80;2.15;;;;;;;2.83;100.00;101689.13;6275552;28;20356;-78
2023/01/31 04:46:47;;;;;;;13.18;1.75;;;;;;;2.84;100.00;101697.75;6279828;28;20049;-78
2023/01/31 04:49:48;;;;;;;10.00;1.38;;;;;;;2.85;100.00;101691.69;6280107;28;20049;-77
2023/01/31 04:52:51;;;;;;;15.00;1.15;;;;;;;2.81;100.00;101688.25;6279753;28;20325;-78
2023/01/31 04:55:54;;;;;;;11.90;2.15;;;;;;;2.79;100.00;101683.06;6279857;28;20363;-79
2023/01/31 04:58:55;;;;;;;2.50;0.65;;;;;;;2.79;100.00;101677.88;6279712;28;20075;-78
2023/01/31 05:01:56;;;;;;;7.85;1.35;;;;;;;2.79;100.00;101674.44;6279493;28;20049;-78
2023/01/31 05:04:57;;;;;;;9.40;1.35;;;;;;;2.81;100.00;101677.84;6277672;28;20063;-78
2023/01/31 05:08:00;;;;;;;7.60;1.17;;;;;;;2.81;100.00;101685.66;6279654;28;20048;-78
2023/01/31 05:11:04;;;;;;;11.02;1.23;;;;;;;2.79;100.00;101677.03;6279437;28;20045;-78
2023/01/31 05:14:05;;;;;;;8.60;1.40;;;;;;;2.77;100.00;101682.22;6279082;28;20045;-77
2023/01/31 05:17:07;;;;;;;6.18;1.33;;;;;;;2.76;100.00;101684.81;6279535;28;20056;-78
2023/01/31 05:20:09;;;;;;;1.13;0.35;;;;;;;2.75;100.00;101677.91;6279236;28;20424;-78
2023/01/31 05:23:12;;;;;;;1.35;0.80;;;;;;;2.79;100.00;101679.63;6279158;28;20052;-77
2023/01/31 05:26:14;;;;;;;2.55;0.70;;;;;;;2.78;100.00;101681.34;6279277;28;20060;-77
2023/01/31 05:29:15;;;;;;;9.40;1.27;;;;;;;2.81;100.00;101670.06;6279155;28;20569;-78
2023/01/31 05:32:18;;;;;;;7.05;1.27;;;;;;;2.85;100.00;101666.59;6278788;28;20347;-77
2023/01/31 05:35:19;;;;;;;6.75;1.38;;;;;;;2.85;100.00;101670.94;6255887;28;20139;-77
2023/01/31 05:38:22;;;;;;;10.27;1.63;;;;;;;2.94;100.00;101670.88;6253999;28;20049;-77
2023/01/31 05:41:23;;;;;;;14.48;1.05;;;;;;;2.91;100.00;101669.16;6253522;28;20049;-77
2023/01/31 05:44:25;;;;;;;17.17;2.20;;;;;;;2.92;100.00;101657.91;6266193;28;20079;-77
2023/01/31 05:47:26;;;;;;;12.10;1.52;;;;;;;2.95;100.00;101657.00;6278218;28;20060;-77
2023/01/31 05:50:27;;;;;;;7.00;1.33;;;;;;;2.99;100.00;101645.72;6278529;28;20434;-78
2023/01/31 05:53:30;;;;;;;16.35;1.35;;;;;;;2.99;100.00;101650.91;6278236;28;20048;-77
2023/01/31 05:56:32;;;;;;;13.05;0.95;;;;;;;3.06;100.00;101652.59;6277892;28;20338;-77
2023/01/31 05:59:33;;;;;;;2.72;0.90;;;;;;;3.18;100.00;101642.13;6278260;28;20064;-77
2023/01/31 06:02:34;;;;;;;2.92;0.45;;;;;;;3.16;100.00;101643.00;6277709;28;20044;-77
2023/01/31 06:05:36;;;;;;;16.98;1.33;;;;;;;3.16;100.00;101640.41;6254618;28;20060;-78
2023/01/31 06:08:39;;;;;;;8.15;0.75;;;;;;;3.16;100.00;101643.00;6253573;28;20056;-78
2023/01/31 06:11:40;;;;;;;6.10;2.63;;;;;;;3.21;100.00;101643.81;6253224;28;20140;-77
2023/01/31 06:14:41;;;;;;;8.50;0.93;;;;;;;3.28;100.00;101645.50;6253090;28;20054;-78
2023/01/31 06:17:43;;;;;;;14.82;1.25;;;;;;;3.31;100.00;101648.06;6253195;28;20088;-79
2023/01/31 06:20:44;;;;;;;6.05;0.90;;;;;;;3.27;100.00;101639.44;6252723;28;20056;-78
2023/01/31 06:23:47;;;;;;;5.25;0.77;;;;;;;3.30;100.00;101635.94;6253158;28;20053;-78
2023/01/31 06:26:48;;;;;;;2.22;0.93;;;;;;;3.34;100.00;101629.84;6252757;28;20054;-77
2023/01/31 06:29:49;;;;;;;4.00;0.95;;;;;;;3.34;100.00;101627.25;6252797;28;20360;-78
2023/01/31 06:32:51;;;;;;;3.72;0.88;;;;;;;3.31;100.00;101625.53;6252886;28;20050;-78
2023/01/31 06:35:52;;;;;;;8.93;1.48;;;;;;;3.36;100.00;101624.63;6253505;28;20049;-78
2023/01/31 06:38:55;;;;;;;4.88;1.10;;;;;;;3.34;100.00;101624.66;6252420;28;20061;-78
2023/01/31 06:41:56;;;;;;;6.90;1.40;;;;;;;3.34;100.00;101622.06;6252440;28;20344;-78
2023/01/31 06:44:57;;;;;;;5.40;1.38;;;;;;;3.37;100.00;101626.38;6252360;28;20348;-77
2023/01/31 06:48:00;;;;;;;12.10;1.45;;;;;;;3.38;100.00;101621.16;6252588;28;20046;-78
2023/01/31 06:51:01;;;;;;;9.43;1.30;;;;;;;3.37;100.00;101608.19;6252189;28;20136;-78
2023/01/31 06:54:04;;;;;;;15.57;2.40;;;;;;;3.40;100.00;101598.59;6252105;28;20045;-78
2023/01/31 06:57:06;;;;;;;14.10;0.98;;;;;;;3.45;100.00;101588.16;6252310;28;20045;-78
2023/01/31 07:00:08;;;;;;;8.63;1.20;;;;;;;3.44;100.00;101584.72;6251729;28;20053;-78
2023/01/31 07:03:10;;;;;;;11.93;1.40;;;;;;;3.43;100.00;101583.00;6252768;28;20056;-77
2023/01/31 07:06:12;;;;;;;2.28;1.20;;;;;;;3.47;100.00;101579.50;6251910;28;20052;-78
2023/01/31 07:09:15;;;;;;;4.82;1.00;;;;;;;3.49;100.00;101580.31;6251821;28;20479;-78
2023/01/31 07:12:16;;;;;;;14.68;1.35;;;;;;;3.44;100.00;101573.47;6259700;28;20351;-77
2023/01/31 07:15:18;;;;;;;6.93;1.30;;;;;;;3.42;100.00;101565.69;6276336;28;20054;-77
2023/01/31 07:18:19;;;;;;;3.75;1.55;;;;;;;3.48;100.00;101550.03;6276195;28;20048;-78
2023/01/31 07:21:21;;;;;;;7.10;1.73;;;;;;;3.52;100.00;101537.88;6276174;28;20049;-77
2023/01/31 07:24:23;;;;;;;6.32;1.90;;;;;;;3.56;100.00;101543.00;6275869;28;20332;-78
2023/01/31 07:27:25;;;;;;;7.80;2.58;;;;;;;3.53;100.00;101549.97;6275964;28;20060;-77
2023/01/31 07:30:28;;;;;;;10.32;1.83;;;;;;;3.53;100.00;101535.25;6264374;28;20057;-78
2023/01/31 07:33:30;;;;;;;8.07;2.13;;;;;;;3.55;100.00;101536.09;6252308;28;20064;-77
2023/01/31 07:36:31;;;;;;;6.25;1.60;;;;;;;3.58;100.00;101537.78;6276339;28;20053;-78
2023/01/31 07:39:34;;;;;;;12.98;2.70;;;;;;;3.60;100.00;101538.66;6261593;28;20482;-77
2023/01/31 07:42:35;;;;;;;9.25;1.52;;;;;;;3.67;100.00;101547.22;6261747;28;20044;-78
2023/01/31 07:45:41;;;;;;;5.38;1.98;;;;;;;3.70;100.00;101532.44;6262152;28;20045;-78
2023/01/31 07:48:42;;;;;;;6.40;2.20;;;;;;;3.75;100.00;101512.44;6260361;28;20083;-78
2023/01/31 07:51:44;;;;;;;13.75;2.50;;;;;;;3.76;100.00;101511.56;6258399;28;20499;-78
2023/01/31 07:54:46;;;;;;;9.65;2.00;;;;;;;3.82;100.00;101505.44;6250904;28;20052;-78
2023/01/31 07:57:48;;;;;;;10.95;2.03;;;;;;;3.85;100.00;101499.31;6251133;28;20049;-77
2023/01/31 08:04:10;;;;;;;6.78;1.50;;;;;;;3.93;100.00;101485.34;6272430;28;20050;-78
2023/01/31 08:07:12;;;;;;;14.05;2.28;;;;;;;3.96;100.00;101492.25;6268691;28;20443;-77
2023/01/31 08:10:16;;;;;;;12.90;2.97;;;;;;;3.99;100.00;101485.25;6267221;28;20049;-77
2023/01/31 08:13:18;;;;;;;12.15;3.03;;;;;;;3.99;100.00;101472.25;6266697;28;20041;-77
2023/01/31 08:16:20;;;;;;;4.13;2.00;;;;;;;4.07;100.00;101479.94;6267399;28;20049;-78
2023/01/31 08:19:21;;;;;;;8.68;2.28;;;;;;;4.07;100.00;101470.41;6268197;28;20114;-78
2023/01/31 08:22:22;;;;;;;7.75;3.03;;;;;;;4.16;100.00;101460.75;6267007;28;20055;-76
2023/01/31 08:25:27;;;;;;;26.55;3.22;;;;;;;4.16;100.00;101469.41;6273399;28;20542;-77
2023/01/31 08:28:29;;;;;;;13.77;4.93;;;;;;;4.21;100.00;101475.38;6266827;28;20051;-77
2023/01/31 08:31:30;;;;;;;8.68;2.70;;;;;;;4.21;100.00;101469.34;6274981;28;20056;-78
2023/01/31 08:34:32;;;;;;;19.15;2.95;;;;;;;4.22;100.00;101456.28;6267311;28;20049;-79
2023/01/31 08:37:33;;;;;;;17.48;2.88;;;;;;;4.24;100.00;101457.16;6272673;28;20049;-78
2023/01/31 08:40:36;;;;;;;9.52;2.83;;;;;;;4.21;100.00;101454.56;6266635;28;20068;-76
2023/01/31 08:43:37;;;;;;;14.05;3.78;;;;;;;4.12;100.00;101452.13;6251142;28;20056;-78
2023/01/31 08:46:39;;;;;;;13.40;3.55;;;;;;;4.03;100.00;101450.50;6249654;28;20446;-78
2023/01/31 08:49:41;;;;;;;8.88;3.83;;;;;;;4.01;100.00;101433.25;6265152;28;20044;-79
2023/01/31 08:52:42;;;;;;;20.95;3.85;;;;;;;3.96;100.00;101432.44;6267164;28;20180;-80
2023/01/31 08:55:45;;;;;;;21.27;3.47;;;;;;;3.94;100.00;101419.44;6266563;28;20049;-80
2023/01/31 08:58:46;;;;;;;25.38;5.20;;;;;;;3.95;100.00;101421.19;6270393;28;20060;-78
2023/01/31 09:01:47;;;;;;;10.93;4.07;;;;;;;3.94;100.00;101429.00;6263834;28;20325;-79
2023/01/31 09:04:49;;;;;;;14.27;4.47;;;;;;;3.94;100.00;101419.44;6268018;28;20061;-78
2023/01/31 09:07:50;;;;;;;18.75;4.55;;;;;;;3.94;100.00;101416.00;6265076;28;20075;-76
2023/01/31 09:10:54;;;;;;;16.40;5.30;;;;;;;3.96;100.00;101404.69;6267767;28;20431;-75
2023/01/31 09:13:56;;;;;;;19.27;4.57;;;;;;;4.01;100.00;101395.09;6260306;28;20447;-75
2023/01/31 09:16:57;;;;;;;16.45;4.20;;;;;;;4.01;100.00;101389.03;6274504;28;20056;-74
2023/01/31 09:19:58;;;;;;;10.85;4.45;;;;;;;3.93;100.00;101383.09;6270149;28;20363;-75
2023/01/31 09:23:00;;;;;;;9.13;4.55;;;;;;;3.94;100.00;101374.41;6266944;28;20045;-74
2023/01/31 09:26:03;;;;;;;14.05;4.65;;;;;;;4.00;100.00;101369.97;6262097;28;20037;-74
2023/01/31 09:29:04;;;;;;;15.98;4.80;;;;;;;4.00;100.00;101369.97;6269459;28;20052;-75
2023/01/31 09:32:06;;;;;;;9.10;4.40;;;;;;;3.98;100.00;101353.53;6276219;28;20363;-75
2023/01/31 09:35:08;;;;;;;13.00;4.57;;;;;;;4.01;100.00;101366.47;6264819;28;20047;-76
2023/01/31 09:38:10;;;;;;;20.42;5.00;;;;;;;4.00;100.00;101359.56;6266144;28;20045;-76
2023/01/31 09:41:23;;;;;;;17.92;5.40;;;;;;;4.04;100.00;101365.56;6260895;28;20129;-76
2023/01/31 09:44:31;;;;;;;10.43;5.07;;;;;;;4.04;100.00;101358.63;6275759;28;20049;-75
2023/01/31 09:47:36;;;;;;;13.40;3.95;;;;;;;4.04;100.00;101352.56;6278623;28;20052;-77
2023/01/31 09:50:42;;;;;;;10.57;4.82;;;;;;;4.06;100.00;101350.81;6278488;28;20049;-77
2023/01/31 09:53:45;;;;;;;10.18;5.70;;;;;;;4.09;100.00;101353.34;6278780;28;20061;-75
2023/01/31 09:57:00;;;;;;;19.25;5.68;;;;;;;4.16;100.00;101356.69;6277579;28;20057;-77
2023/01/31 10:00:12;;;;;;;11.98;4.65;;;;;;;4.19;100.00;101338.44;6277789;28;20102;-77
2023/01/31 10:03:38;;;;;;;13.65;5.20;;;;;;;4.18;100.00;101340.19;6278512;28;20052;-77
2023/01/31 10:06:47;;;;;;;21.27;6.53;;;;;;;4.26;100.00;101327.88;6266521;28;20355;-78
2023/01/31 10:09:54;;;;;;;8.68;4.68;;;;;;;4.30;100.00;101336.50;6269841;28;20055;-78
2023/01/31 10:13:02;;;;;;;17.70;4.97;;;;;;;4.32;100.00;101346.00;6266516;28;20053;-78
2023/01/31 10:16:12;;;;;;;9.13;4.75;;;;;;;4.28;100.00;101335.69;6271084;28;20094;-78
2023/01/31 10:19:20;;;;;;;27.98;6.85;;;;;;;4.30;100.00;101336.50;6270337;28;20052;-78
2023/01/31 10:22:26;;;;;;;15.68;4.60;;;;;;;4.30;100.00;101339.09;6277630;28;20045;-79
2023/01/31 10:25:34;;;;;;;13.43;5.43;;;;;;;4.29;100.00;101324.38;6268997;28;20045;-80
2023/01/31 10:28:41;;;;;;;10.55;4.57;;;;;;;4.32;100.00;101303.53;6277039;28;20086;-79
2023/01/31 10:31:45;;;;;;;14.27;5.45;;;;;;;4.36;100.00;101294.78;6277481;28;20052;-78
2023/01/31 10:34:52;;;;;;;14.52;5.72;;;;;;;4.39;100.00;101305.09;6269162;28;20127;-78
2023/01/31 10:37:57;;;;;;;17.02;6.00;;;;;;;4.42;100.00;101286.00;6277183;28;20061;-79
2023/01/31 10:41:06;;;;;;;20.65;4.47;;;;;;;4.47;100.00;101286.75;6275965;28;20053;-77
2023/01/31 10:44:20;;;;;;;12.55;5.25;;;;;;;4.47;100.00;101279.81;6270860;28;20097;-78
2023/01/31 10:47:26;;;;;;;15.57;4.95;;;;;;;4.53;100.00;101287.47;6254490;28;20140;-77
2023/01/31 10:50:34;;;;;;;17.35;5.55;;;;;;;4.51;100.00;101275.41;6252387;28;20056;-78
2023/01/31 10:53:59;;;;;;;18.33;6.38;;;;;;;4.52;100.00;101262.34;6252241;28;20041;-78
2023/01/31 10:57:01;;;;;;;14.70;5.93;;;;;;;4.58;100.00;101243.13;6260621;28;20055;-80
2023/01/31 11:00:05;;;;;;;11.88;5.38;;;;;;;4.56;100.00;101255.34;6276590;28;20049;-78
2023/01/31 11:03:06;;;;;;;16.63;5.43;;;;;;;4.64;100.00;101250.00;6271191;28;20045;-79
2023/01/31 11:06:12;;;;;;;16.38;5.72;;;;;;;4.69;100.00;101254.22;6251899;28;20049;-78
2023/01/31 11:09:14;;;;;;;11.13;4.85;;;;;;;4.68;100.00;101265.50;6251903;28;20045;-76
2023/01/31 11:12:15;;;;;;;15.20;5.53;;;;;;;4.76;100.00;101249.72;6255766;28;20168;-79
2023/01/31 11:15:19;;;;;;;11.38;4.53;;;;;;;4.78;100.00;101242.75;6270278;28;20344;-78
2023/01/31 11:18:31;;;;;;;20.05;4.78;;;;;;;4.82;100.00;101249.59;6272728;28;20072;-78
2023/01/31 11:21:36;;;;;;;12.63;5.55;;;;;;;4.90;100.00;101245.06;6275964;28;20055;-78
2023/01/31 11:24:41;;;;;;;16.95;5.13;;;;;;;4.93;100.00;101229.38;6266620;28;20052;-78
2023/01/31 11:27:43;;;;;;;8.40;3.95;;;;;;;4.96;100.00;101212.84;6252571;28;20049;-77
2023/01/31 11:30:48;;;;;;;12.55;4.80;;;;;;;4.98;100.00;101216.25;6251420;28;20352;-78
2023/01/31 11:33:57;;;;;;;14.40;5.95;;;;;;;4.99;100.00;101207.53;6251504;28;20048;-78
2023/01/31 11:37:12;;;;;;;23.23;4.65;;;;;;;5.01;100.00;101206.63;6251743;28;20423;-78
2023/01/31 11:40:21;;;;;;;12.75;5.15;;;;;;;5.02;100.00;101215.28;6251039;28;20053;-78
2023/01/31 11:43:24;;;;;;;;;;;;;;;5.02;100.00;101204.88;6251678;28;20049;-78
2023/01/31 11:46:27;;;;;;;12.00;4.30;;;;;;;5.05;100.00;101203.06;6251091;28;19925;-78
2023/01/31 11:49:32;;;;;;;11.93;5.38;;;;;;;5.03;100.00;101198.75;6251338;28;20057;-77
2023/01/31 11:52:34;;;;;;;14.30;5.55;;;;;;;5.08;100.00;101202.97;6250878;28;20057;-79
2023/01/31 11:55:38;;;;;;;14.40;5.03;;;;;;;5.04;100.00;101193.53;6250812;28;20052;-78
2023/01/31 11:58:41;;;;;;;16.95;5.60;;;;;;;5.10;100.00;101192.53;6250965;28;20050;-78
2023/01/31 12:01:50;;;;;;;19.42;4.75;;;;;;;5.17;100.00;101190.63;6250764;28;20111;-79
2023/01/31 12:04:52;;;;;;;13.60;4.95;;;;;;;5.07;100.00;101176.97;6250715;28;20049;-78
2023/01/31 12:07:54;;;;;;;15.52;4.88;;;;;;;5.08;100.00;101181.28;6257130;28;20052;-78
2023/01/31 12:10:56;;;;;;;20.52;5.30;;;;;;;5.16;100.00;101186.31;6256176;28;20463;-78
2023/01/31 12:14:09;;;;;;;10.75;5.80;;;;;;;5.21;100.00;101185.31;6250385;28;20428;-78
2023/01/31 12:17:15;;;;;;;19.10;5.57;;;;;;;5.23;100.00;101170.50;6250552;28;20045;-78
2023/01/31 12:20:32;;;;;;;14.80;5.50;;;;;;;5.20;100.00;101177.53;6250696;28;20436;-78
2023/01/31 12:23:42;;;;;;;9.23;4.70;;;;;;;5.21;100.00;101182.69;6250448;28;20049;-78
2023/01/31 12:26:48;;;;;;;10.70;5.13;;;;;;;5.19;100.00;101188.84;6251210;28;20049;-78
2023/01/31 12:30:20;;;;;;;18.23;5.88;;;;;;;5.14;100.00;101181.16;6250182;28;20049;-79
2023/01/31 12:33:38;;;;;;;10.20;4.50;;;;;;;5.14;100.00;101172.50;6248541;28;20050;-78
2023/01/31 12:36:53;;;;;;;11.82;5.25;;;;;;;5.15;100.00;101182.00;6266795;28;20052;-78
2023/01/31 12:40:21;;;;;;;11.27;4.88;;;;;;;5.11;100.00;101173.41;6271158;28;20339;-78
2023/01/31 12:43:42;;;;;;;8.35;4.95;;;;;;;5.04;100.00;101188.34;6268766;28;20049;-78
2023/01/31 12:46:56;;;;;;;9.60;4.53;;;;;;;5.01;100.00;101190.16;6262043;28;20443;-78
2023/01/31 12:50:12;;;;;;;10.48;4.72;;;;;;;4.95;100.00;101178.13;6274933;28;20049;-78
2023/01/31 12:53:27;;;;;;;14.43;4.88;;;;;;;4.95;100.00;101182.44;6274666;28;20359;-77
2023/01/31 12:56:45;;;;;;;12.25;5.63;;;;;;;4.94;100.00;101181.59;6262870;28;20053;-77
2023/01/31 12:59:55;;;;;;;16.15;5.13;;;;;;;4.89;100.00;101190.41;6259987;28;20351;-78
2023/01/31 13:03:16;;;;;;;8.68;5.05;;;;;;;4.87;100.00;101176.59;6268672;28;20048;-79
2023/01/31 13:06:24;;;;;;;9.93;4.93;;;;;;;4.87;100.00;101173.97;6268445;28;20053;-78
2023/01/31 13:09:27;;;;;;;8.77;5.18;;;;;;;4.89;100.00;101173.03;6267373;28;20359;-79
2023/01/31 13:12:33;;;;;;;17.45;5.53;;;;;;;4.84;100.00;101165.34;6274025;28;20041;-79
2023/01/31 13:15:40;;;;;;;13.48;5.65;;;;;;;4.84;100.00;101175.75;6275694;28;20347;-78
2023/01/31 13:18:45;;;;;;;10.25;4.55;;;;;;;4.83;100.00;101161.03;6268655;28;20055;-79
2023/01/31 13:21:53;;;;;;;9.05;5.20;;;;;;;4.81;100.00;101155.00;6279187;28;20064;-78
2023/01/31 13:25:01;;;;;;;18.40;5.37;;;;;;;4.83;100.00;101165.38;6262452;28;20470;-78
2023/01/31 13:28:11;;;;;;;6.35;4.50;;;;;;;4.82;100.00;101153.25;6266118;28;20045;-80
2023/01/31 13:31:16;;;;;;;;;;;;;;;4.83;100.00;101162.78;6278244;28;20052;-78
2023/01/31 13:34:22;;;;;;;13.77;5.03;;;;;;;4.87;100.00;101154.00;6272994;28;19925;-80
2023/01/31 13:37:29;;;;;;;8.98;4.75;;;;;;;4.89;100.00;101141.78;6275082;28;20052;-79
2023/01/31 13:40:34;;;;;;;8.52;4.43;;;;;;;4.86;100.00;101141.00;6278670;28;20392;-79
2023/01/31 13:43:36;;;;;;;11.55;4.22;;;;;;;4.91;100.00;101137.41;6272454;28;20069;-77
2023/01/31 13:46:43;;;;;;;7.28;4.38;;;;;;;4.94;100.00;101141.69;6267209;28;20749;-80
2023/01/31 13:49:50;;;;;;;9.35;4.30;;;;;;;4.90;100.00;101133.09;6272089;28;20045;-79
2023/01/31 13:52:56;;;;;;;7.35;4.22;;;;;;;4.95;100.00;101132.97;6278464;28;20045;-78
2023/01/31 13:56:00;;;;;;;7.03;4.35;;;;;;;4.97;100.00;101129.44;6278325;28;20053;-77
2023/01/31 13:59:06;;;;;;;10.68;3.55;;;;;;;4.97;100.00;101137.25;6278503;28;20049;-79
2023/01/31 14:02:18;;;;;;;8.73;4.82;;;;;;;5.00;100.00;101115.50;6278071;28;20056;-80
2023/01/31 14:05:51;;;;;;;6.85;4.47;;;;;;;5.06;100.00;101124.03;6278030;28;20049;-78
2023/01/31 14:09:03;;;;;;;9.38;4.53;;;;;;;5.15;100.00;101122.94;6278472;28;20055;-80
2023/01/31 14:12:31;;;;;;;6.05;3.75;;;;;;;5.15;100.00;101112.53;6262927;28;20057;-79
2023/01/31 14:15:47;;;;;;;10.93;5.90;;;;;;;5.16;100.00;101111.63;6277609;28;20469;-80
2023/01/31 14:18:49;;;;;;;6.72;4.22;;;;;;;5.09;100.00;101087.47;6252594;28;20045;-79
2023/01/31 14:21:52;;;;;;;8.38;4.00;;;;;;;5.09;100.00;101090.09;6268330;28;20359;-79
2023/01/31 14:24:59;;;;;;;8.20;4.20;;;;;;;5.10;100.00;101098.75;6276170;28;20049;-78